Aérodrome :
LOGIN :

S'inscrire | Disclaimer

   EN    FR    IT 

 










Légende :    VFR   VFR Marginal   IFR   IFR Intensif   IFR Très Intensif
Visi : 
Plafond : 
>= 8 km
>= 3000ft
5 à 8 km
1000 à 3000 ft
1500m à 5 km
500 à 1000 ft
800 à 1500m
200 à 500 ft
< 800m
< 200 ft
Symboles :   Orages  Brouillard  Fortes neiges  Fortes précipitations  Vent > 20 kt
SIGMETs :   Divers  Orages  Givrage  Turbulence  Onde Orograph.  Cendres Volcan.






- Altitude de l'aérodrome : 179 ft
- Code IATA : HEL


EFHK - Helsinki Vantaa

DERNIER METAR :
  • 041820Z 27010KT CAVOK 02/M09 Q1016 NOSIG

METARs EXPIRÉS :
  • 041750Z 27009KT CAVOK 03/M10 Q1015 NOSIG
  • 041720Z 28012KT CAVOK 03/M11 Q1015 NOSIG
  • 041650Z 26014KT CAVOK 04/M12 Q1014 NOSIG
  • 041620Z 26013KT 9999 VCSH NSC 04/M10 Q1014 BECMG CAVOK
  • 041550Z 25013KT 9999 VCSH NSC 05/M11 Q1013 BECMG CAVOK

TAF TAF EFHK
Valide du 04 à 18h jusqu'au 05 à 18h UTC


041730Z 0418/0518 27010KT CAVOK



MET'MAP, la Météo Aéronautique d'un coup d'oeil ! - Copyright ORBIFLY Décembre 2007 - Disclaimer

ORBIFLY MET'MAP TEAM :

Programmation & Développement : Alexandra Zaïnal
Sur une idée originale de : Baudouin d'Aumeries
Assistance à la programmation : Marc-Olivier Méhu
Soutien technique & logistique : Manuel Goepfert

Contact : metmap@orbifly.com




SOURCES & CREDITS :

   NOAA